Time;durP1;ratioP1;P1;durP2;ratioP2;P2;SDS_P1;SDS_P2;PMS_P1;PMS_P2;Temp;Humidity;BMP_temperature;BMP_pressure;BME280_temperature;BME280_humidity;BME280_pressure;Samples;Min_cycle;Max_cycle;Signal;HPM_P1;HPM_P2
2024/04/17 00:01:31;;;;;;;4.50;0.77;;;5.00;99.90;;;;;;5436859;26;20014;-76
2024/04/17 00:03:57;;;;;;;4.72;0.50;;;4.90;99.90;;;;;;5406531;26;20016;-75
2024/04/17 00:06:24;;;;;;;4.78;0.68;;;4.90;99.90;;;;;;5425341;26;20352;-76
2024/04/17 00:08:51;;;;;;;6.60;0.70;;;4.90;99.90;;;;;;5401937;26;20002;-76
2024/04/17 00:11:17;;;;;;;7.22;0.70;;;4.90;99.90;;;;;;5371755;26;20002;-75
2024/04/17 00:13:43;;;;;;;5.63;0.80;;;4.80;99.90;;;;;;5399353;26;19994;-75
2024/04/17 00:16:10;;;;;;;6.05;0.70;;;4.80;99.90;;;;;;5400424;26;20020;-75
2024/04/17 00:18:36;;;;;;;5.07;0.80;;;4.80;99.90;;;;;;5384259;26;20032;-78
2024/04/17 00:21:02;;;;;;;5.13;0.57;;;4.80;99.90;;;;;;5399042;26;20016;-76
2024/04/17 00:23:29;;;;;;;8.70;0.80;;;4.70;99.90;;;;;;5430998;26;20010;-74
2024/04/17 00:25:55;;;;;;;4.80;0.63;;;4.70;99.90;;;;;;5428174;26;20009;-75
2024/04/17 00:28:24;;;;;;;6.80;1.35;;;4.70;99.90;;;;;;5399297;26;21094;-77
2024/04/17 00:30:50;;;;;;;4.85;0.57;;;4.70;99.90;;;;;;5457327;25;20012;-76
2024/04/17 00:33:17;;;;;;;7.18;0.70;;;4.70;99.90;;;;;;5436325;26;19998;-76
2024/04/17 00:35:44;;;;;;;3.28;0.60;;;4.70;99.90;;;;;;5376402;26;20015;-76
2024/04/17 00:38:10;;;;;;;3.00;0.77;;;4.60;99.90;;;;;;5431452;26;21295;-76
2024/04/17 00:40:36;;;;;;;7.47;0.80;;;4.60;99.90;;;;;;5399362;26;20010;-76
2024/04/17 00:43:03;;;;;;;3.55;0.60;;;4.60;99.90;;;;;;5426589;26;20475;-77
2024/04/17 00:45:45;;;;;;;7.57;0.90;;;4.60;99.90;;;;;;5423220;26;20401;-76
2024/04/17 00:48:13;;;;;;;6.03;0.80;;;4.50;99.90;;;;;;5436819;26;20016;-75
2024/04/17 00:50:46;;;;;;;3.10;0.73;;;4.50;99.90;;;;;;5406997;26;20339;-75
2024/04/17 00:53:14;;;;;;;;;;;4.50;99.90;;;;;;5367387;26;20368;-77
2024/04/17 00:55:41;;;;;;;6.22;0.75;;;4.50;99.90;;;;;;5411603;26;20257;-76
2024/04/17 00:58:08;;;;;;;3.25;0.82;;;4.50;99.90;;;;;;5397265;26;20575;-77
2024/04/17 01:00:36;;;;;;;6.47;0.85;;;4.50;99.90;;;;;;5392990;26;20020;-77
2024/04/17 01:03:03;;;;;;;5.15;0.75;;;4.40;99.90;;;;;;5432385;26;20002;-77
2024/04/17 01:05:31;;;;;;;1.98;0.52;;;4.40;99.90;;;;;;5407516;26;20016;-76
2024/04/17 01:07:58;;;;;;;4.55;0.68;;;4.40;99.90;;;;;;5396826;26;20020;-77
2024/04/17 01:10:25;;;;;;;6.88;1.45;;;4.40;99.90;;;;;;5391644;26;20014;-77
2024/04/17 01:12:51;;;;;;;4.47;0.73;;;4.40;99.90;;;;;;5449431;25;20356;-77
2024/04/17 01:15:21;;;;;;;7.68;0.95;;;4.40;99.90;;;;;;5423333;26;20686;-77
2024/04/17 01:17:48;;;;;;;10.48;1.00;;;4.40;99.90;;;;;;5403045;26;20005;-76
2024/04/17 01:20:14;;;;;;;6.88;0.80;;;4.40;99.90;;;;;;5408997;26;20006;-76
2024/04/17 01:22:41;;;;;;;4.70;1.05;;;4.40;99.90;;;;;;5402587;26;19998;-77
2024/04/17 01:25:07;;;;;;;5.75;0.70;;;4.50;99.90;;;;;;5424680;26;20002;-77
2024/04/17 01:27:34;;;;;;;10.85;1.52;;;4.40;99.90;;;;;;5395327;26;19998;-76
2024/04/17 01:30:00;;;;;;;8.18;1.00;;;4.50;99.90;;;;;;5426007;26;20397;-77
2024/04/17 01:32:27;;;;;;;11.90;1.30;;;4.50;99.90;;;;;;5397283;26;20009;-77
2024/04/17 01:34:54;;;;;;;5.47;0.80;;;4.50;99.90;;;;;;5400651;26;20003;-77
2024/04/17 01:37:20;;;;;;;6.88;1.45;;;4.60;99.90;;;;;;5405972;26;19998;-76
2024/04/17 01:39:46;;;;;;;6.80;1.17;;;4.70;99.90;;;;;;5398870;26;20384;-75
2024/04/17 01:42:13;;;;;;;8.50;1.52;;;4.70;99.90;;;;;;5421510;26;20011;-75
2024/04/17 01:44:40;;;;;;;4.88;0.90;;;4.70;99.90;;;;;;5395561;26;20010;-76
2024/04/17 01:47:06;;;;;;;8.90;1.17;;;4.70;99.90;;;;;;5424821;26;20013;-75
2024/04/17 01:49:32;;;;;;;7.97;1.00;;;4.70;99.90;;;;;;5395878;26;20020;-76
2024/04/17 01:51:59;;;;;;;6.30;0.90;;;4.70;99.90;;;;;;5379245;26;20008;-75
2024/04/17 01:54:25;;;;;;;3.72;0.73;;;4.80;99.90;;;;;;5404684;26;20003;-75
2024/04/17 01:56:51;;;;;;;4.78;1.17;;;4.80;99.90;;;;;;5426040;26;20404;-76
2024/04/17 01:59:18;;;;;;;8.30;1.27;;;4.80;99.90;;;;;;5425346;26;20006;-76
2024/04/17 02:01:45;;;;;;;3.38;0.52;;;4.80;99.90;;;;;;5395650;26;20025;-76
2024/04/17 02:04:12;;;;;;;3.25;0.57;;;4.90;99.90;;;;;;5426270;26;20002;-76
2024/04/17 02:06:38;;;;;;;7.40;0.80;;;4.90;99.90;;;;;;5375620;26;19994;-76
2024/04/17 02:09:04;;;;;;;5.97;1.00;;;4.90;99.90;;;;;;5440894;26;21003;-76
2024/04/17 02:11:31;;;;;;;5.70;1.13;;;4.90;99.90;;;;;;5373855;26;20007;-77
2024/04/17 02:13:57;;;;;;;4.80;0.90;;;5.00;99.90;;;;;;5396434;26;20781;-77
2024/04/17 02:16:24;;;;;;;2.63;0.60;;;5.00;99.90;;;;;;5392601;26;19998;-76
2024/04/17 02:18:50;;;;;;;6.60;1.08;;;5.00;99.90;;;;;;5425042;26;19998;-77
2024/04/17 02:21:16;;;;;;;6.38;0.90;;;5.00;99.90;;;;;;5397048;26;20457;-74
2024/04/17 02:23:46;;;;;;;10.45;1.27;;;5.00;99.90;;;;;;5434252;26;20006;-75
2024/04/17 02:26:13;;;;;;;6.35;0.90;;;5.00;99.90;;;;;;5366282;26;20006;-75
2024/04/17 02:28:39;;;;;;;8.95;1.55;;;5.10;99.90;;;;;;5394719;26;20545;-75
2024/04/17 02:31:06;;;;;;;10.50;1.60;;;5.10;99.90;;;;;;5427465;26;19999;-75
2024/04/17 02:33:33;;;;;;;12.40;1.08;;;5.10;99.90;;;;;;5365491;26;20441;-76
2024/04/17 02:36:00;;;;;;;9.65;2.05;;;5.20;99.90;;;;;;5423142;26;20010;-77
2024/04/17 02:38:26;;;;;;;9.55;2.15;;;5.20;99.90;;;;;;5432717;26;20017;-77
2024/04/17 02:40:52;;;;;;;11.57;1.70;;;5.30;99.90;;;;;;5434228;26;20450;-75
2024/04/17 02:43:19;;;;;;;10.20;1.45;;;5.30;99.90;;;;;;5366758;26;20010;-74
2024/04/17 02:45:45;;;;;;;12.73;1.60;;;5.30;99.90;;;;;;5390207;26;20013;-74
2024/04/17 02:48:11;;;;;;;12.30;1.55;;;5.30;99.90;;;;;;5421784;26;19994;-75
2024/04/17 02:50:42;;;;;;;8.85;1.63;;;5.40;99.90;;;;;;5394749;26;21206;-75
2024/04/17 02:53:08;;;;;;;6.38;1.48;;;5.40;99.90;;;;;;5373514;26;19998;-76
2024/04/17 02:55:34;;;;;;;8.10;0.88;;;5.40;99.90;;;;;;5400374;26;20242;-76
2024/04/17 02:58:01;;;;;;;9.23;1.83;;;5.40;99.90;;;;;;5399112;26;20024;-75
2024/04/17 03:00:27;;;;;;;6.68;1.65;;;5.40;99.90;;;;;;5395857;26;21120;-76
2024/04/17 03:02:55;;;;;;;11.88;2.20;;;5.50;99.90;;;;;;5423678;26;20006;-76
2024/04/17 03:05:26;;;;;;;7.32;1.33;;;5.50;99.90;;;;;;5422711;26;20006;-76
2024/04/17 03:07:52;;;;;;;8.10;2.08;;;5.50;99.90;;;;;;5452396;26;20024;-76
2024/04/17 03:10:18;;;;;;;10.60;2.00;;;5.60;99.90;;;;;;5376152;26;20028;-76
2024/04/17 03:12:45;;;;;;;12.85;2.28;;;5.60;99.90;;;;;;5402188;26;20014;-78
2024/04/17 03:15:12;;;;;;;6.88;1.52;;;5.60;99.90;;;;;;5393479;26;20309;-78
2024/04/17 03:17:39;;;;;;;9.63;1.88;;;5.70;99.90;;;;;;5423864;26;20467;-77
2024/04/17 03:20:06;;;;;;;9.63;2.15;;;5.60;99.90;;;;;;5394601;26;20504;-77
2024/04/17 03:22:32;;;;;;;7.80;1.30;;;5.60;99.90;;;;;;5424195;26;19998;-76
2024/04/17 03:24:58;;;;;;;7.57;1.52;;;5.70;99.90;;;;;;5427614;26;20006;-77
2024/04/17 03:27:25;;;;;;;4.40;1.15;;;5.70;99.90;;;;;;5407584;26;20014;-77
2024/04/17 03:29:51;;;;;;;7.22;1.20;;;5.70;99.90;;;;;;5394599;26;20016;-77
2024/04/17 03:32:18;;;;;;;5.93;0.90;;;5.70;99.90;;;;;;5427684;26;20006;-77
2024/04/17 03:34:47;;;;;;;4.65;1.38;;;5.70;99.90;;;;;;5449566;26;20469;-77
2024/04/17 03:37:13;;;;;;;9.70;1.30;;;5.80;99.90;;;;;;5367414;26;20028;-75
2024/04/17 03:39:40;;;;;;;6.22;1.42;;;5.80;99.90;;;;;;5428844;26;20008;-77
2024/04/17 03:42:07;;;;;;;4.95;1.10;;;5.80;99.90;;;;;;5438617;26;20136;-77
2024/04/17 03:44:34;;;;;;;8.32;2.15;;;5.80;99.90;;;;;;5404024;26;20002;-77
2024/04/17 03:47:00;;;;;;;7.93;0.95;;;5.80;99.90;;;;;;5428535;26;20006;-77
2024/04/17 03:49:26;;;;;;;10.25;1.58;;;5.90;99.90;;;;;;5400446;26;19999;-76
2024/04/17 03:51:53;;;;;;;10.60;1.10;;;5.90;99.90;;;;;;5425989;26;20017;-77
2024/04/17 03:54:19;;;;;;;3.90;0.80;;;5.90;99.90;;;;;;5425445;26;20007;-77
2024/04/17 03:56:45;;;;;;;2.45;0.65;;;5.80;99.90;;;;;;5378471;26;21191;-77
2024/04/17 03:59:12;;;;;;;2.92;0.60;;;5.80;99.90;;;;;;5440508;26;20012;-77
2024/04/17 04:01:38;;;;;;;3.58;0.93;;;5.80;99.90;;;;;;5433086;26;20002;-76
2024/04/17 04:04:05;;;;;;;3.55;0.70;;;5.80;99.90;;;;;;5460287;26;20413;-76
2024/04/17 04:06:31;;;;;;;3.78;0.68;;;5.80;99.90;;;;;;5398617;26;20462;-76
2024/04/17 04:08:57;;;;;;;3.25;0.77;;;5.90;99.90;;;;;;5431556;26;20010;-78
2024/04/17 04:11:24;;;;;;;6.93;0.95;;;5.90;99.90;;;;;;5429974;26;20002;-77
2024/04/17 04:13:50;;;;;;;3.13;0.85;;;5.80;99.90;;;;;;5437610;26;20006;-77
2024/04/17 04:16:17;;;;;;;4.75;1.05;;;5.80;99.90;;;;;;5374917;26;20017;-77
2024/04/17 04:18:43;;;;;;;4.72;1.00;;;5.80;99.90;;;;;;5423116;26;19999;-77
2024/04/17 04:21:09;;;;;;;4.68;0.90;;;5.80;99.90;;;;;;5425102;26;20467;-76
2024/04/17 04:23:36;;;;;;;3.90;0.73;;;5.80;99.90;;;;;;5424084;26;20006;-77
2024/04/17 04:26:02;;;;;;;4.82;1.30;;;5.80;99.90;;;;;;5417378;26;20002;-76
2024/04/17 04:28:28;;;;;;;2.88;0.60;;;5.80;99.90;;;;;;5409586;26;20002;-76
2024/04/17 04:30:55;;;;;;;2.42;0.40;;;5.80;99.90;;;;;;5411033;26;20003;-76
2024/04/17 04:33:21;;;;;;;1.55;0.45;;;5.80;99.90;;;;;;5393623;26;20016;-76
2024/04/17 04:35:48;;;;;;;2.00;0.70;;;5.80;99.90;;;;;;5392068;26;20010;-76
2024/04/17 04:38:14;;;;;;;5.10;0.65;;;5.80;99.90;;;;;;5400592;26;20012;-76
2024/04/17 04:40:42;;;;;;;3.78;0.80;;;5.80;99.90;;;;;;5432141;26;20016;-76
2024/04/17 04:43:08;;;;;;;5.47;0.93;;;5.90;99.90;;;;;;5407550;26;20498;-75
2024/04/17 04:45:34;;;;;;;3.03;0.85;;;5.90;99.90;;;;;;5462138;26;20017;-76
2024/04/17 04:48:01;;;;;;;3.20;0.88;;;5.90;99.90;;;;;;5401193;26;20003;-76
2024/04/17 04:50:27;;;;;;;4.63;1.10;;;5.90;99.90;;;;;;5369507;26;20006;-76
2024/04/17 04:52:53;;;;;;;8.05;2.33;;;5.90;99.90;;;;;;5431768;26;21135;-76
2024/04/17 04:55:20;;;;;;;3.47;1.17;;;5.90;99.90;;;;;;5397391;26;20016;-76
2024/04/17 04:57:46;;;;;;;5.40;1.50;;;5.90;99.90;;;;;;5401478;26;20084;-76
2024/04/17 05:00:13;;;;;;;2.90;0.88;;;5.90;99.90;;;;;;5436770;26;20013;-76
2024/04/17 05:02:40;;;;;;;4.10;1.08;;;5.80;99.90;;;;;;5459366;25;20014;-76
2024/04/17 05:05:06;;;;;;;5.18;0.90;;;5.80;99.90;;;;;;5394058;26;20014;-76
2024/04/17 05:07:34;;;;;;;2.53;0.60;;;5.80;99.90;;;;;;5402782;26;20020;-76
2024/04/17 05:10:01;;;;;;;1.42;0.50;;;5.80;99.90;;;;;;5424201;26;20006;-77
2024/04/17 05:12:28;;;;;;;2.80;1.00;;;5.80;99.90;;;;;;5425707;26;21249;-76
2024/04/17 05:14:54;;;;;;;2.60;0.60;;;5.80;99.90;;;;;;5433340;26;19999;-76
2024/04/17 05:17:21;;;;;;;1.92;0.60;;;5.80;99.90;;;;;;5436065;26;20028;-76
2024/04/17 05:19:47;;;;;;;3.25;0.52;;;5.80;99.90;;;;;;5433495;26;20009;-75
2024/04/17 05:22:14;;;;;;;2.38;0.50;;;5.80;99.90;;;;;;5454728;25;20564;-74
2024/04/17 05:24:40;;;;;;;2.08;0.70;;;5.80;99.90;;;;;;5430072;26;20519;-75
2024/04/17 05:27:07;;;;;;;2.70;0.50;;;5.90;99.90;;;;;;5374749;26;20330;-75
2024/04/17 05:29:33;;;;;;;2.70;0.50;;;5.90;99.90;;;;;;5431956;26;20585;-75
2024/04/17 05:32:00;;;;;;;1.98;0.55;;;5.90;99.90;;;;;;5404727;26;20020;-76
2024/04/17 05:34:26;;;;;;;3.80;0.50;;;5.90;99.90;;;;;;5404991;26;20006;-75
2024/04/17 05:36:53;;;;;;;3.13;0.60;;;5.90;99.90;;;;;;5370789;26;20322;-76
2024/04/17 05:39:19;;;;;;;2.80;0.40;;;5.90;99.90;;;;;;5374947;26;19998;-76
2024/04/17 05:41:46;;;;;;;2.17;0.43;;;5.90;99.90;;;;;;5457269;25;20032;-76
2024/04/17 05:44:13;;;;;;;1.55;0.50;;;5.90;99.90;;;;;;5396070;26;19994;-75
2024/04/17 05:46:39;;;;;;;0.70;0.30;;;5.90;99.90;;;;;;5452684;26;20005;-75
2024/04/17 05:49:06;;;;;;;2.05;0.50;;;5.90;99.90;;;;;;5438578;26;20005;-76
2024/04/17 05:51:32;;;;;;;0.73;0.30;;;5.90;99.90;;;;;;5443094;26;20006;-75
2024/04/17 05:53:59;;;;;;;0.98;0.40;;;5.90;99.90;;;;;;5431797;26;20017;-74
2024/04/17 05:56:25;;;;;;;0.88;0.22;;;5.90;99.90;;;;;;5426860;26;20016;-75
2024/04/17 05:58:52;;;;;;;1.55;0.40;;;5.90;99.90;;;;;;5430638;26;20458;-75
2024/04/17 06:01:18;;;;;;;1.33;0.20;;;5.90;99.90;;;;;;5432943;26;20480;-75
2024/04/17 06:03:44;;;;;;;1.10;0.30;;;6.00;99.90;;;;;;5429525;26;20016;-75
2024/04/17 06:06:11;;;;;;;2.22;0.30;;;6.00;99.90;;;;;;5408757;26;20445;-75
2024/04/17 06:08:37;;;;;;;2.72;0.30;;;6.00;99.90;;;;;;5381975;26;20009;-75
2024/04/17 06:11:05;;;;;;;0.68;0.30;;;6.00;99.90;;;;;;5437410;26;20039;-75
2024/04/17 06:13:31;;;;;;;3.13;0.30;;;6.00;99.90;;;;;;5369662;26;20370;-75
2024/04/17 06:15:57;;;;;;;0.82;0.30;;;6.10;99.90;;;;;;5425499;26;19998;-75
2024/04/17 06:18:24;;;;;;;1.27;0.47;;;6.20;99.90;;;;;;5427557;26;20006;-75
2024/04/17 06:20:50;;;;;;;1.45;0.40;;;6.30;99.90;;;;;;5398603;26;20025;-75
2024/04/17 06:23:16;;;;;;;1.67;0.50;;;6.40;99.90;;;;;;5402055;26;20035;-75
2024/04/17 06:25:47;;;;;;;1.52;0.30;;;6.50;99.90;;;;;;5463842;26;20018;-75
2024/04/17 06:28:15;;;;;;;1.95;0.40;;;6.60;99.90;;;;;;5437930;26;20364;-75
2024/04/17 06:30:41;;;;;;;1.23;0.30;;;6.70;99.90;;;;;;5404973;26;20014;-75
2024/04/17 06:33:08;;;;;;;2.15;0.52;;;6.80;99.90;;;;;;5431077;26;20006;-75
2024/04/17 06:35:34;;;;;;;2.92;0.70;;;6.70;99.90;;;;;;5395472;26;20015;-75
2024/04/17 06:38:00;;;;;;;4.20;0.65;;;6.70;99.90;;;;;;5400647;26;20924;-75
2024/04/17 06:40:27;;;;;;;1.63;0.30;;;6.60;99.90;;;;;;5434078;26;19998;-75
2024/04/17 06:42:53;;;;;;;0.95;0.30;;;6.60;99.90;;;;;;5437811;26;19994;-76
2024/04/17 06:45:19;;;;;;;2.60;0.35;;;6.50;99.90;;;;;;5438921;26;20469;-76
2024/04/17 06:47:46;;;;;;;1.83;0.30;;;6.60;99.90;;;;;;5462969;25;21176;-77
2024/04/17 06:50:12;;;;;;;1.60;0.30;;;6.60;99.90;;;;;;5374814;26;20021;-76
2024/04/17 06:52:39;;;;;;;1.77;0.40;;;6.70;99.90;;;;;;5434066;26;20450;-76
2024/04/17 06:55:05;;;;;;;2.80;0.40;;;6.70;99.90;;;;;;5426625;26;20093;-76
2024/04/17 06:57:32;;;;;;;3.17;0.40;;;6.70;99.90;;;;;;5435552;26;20005;-76
2024/04/17 06:59:58;;;;;;;0.68;0.20;;;6.70;99.90;;;;;;5411321;26;20016;-74
2024/04/17 07:02:24;;;;;;;2.40;0.30;;;6.70;99.90;;;;;;5442323;26;20025;-75
2024/04/17 07:04:51;;;;;;;3.90;1.00;;;6.80;99.90;;;;;;5389134;26;20356;-75
2024/04/17 07:07:17;;;;;;;1.25;0.30;;;6.90;99.90;;;;;;5392877;26;20005;-75
2024/04/17 07:09:44;;;;;;;1.77;0.32;;;7.10;99.90;;;;;;5388824;26;20422;-75
2024/04/17 07:12:10;;;;;;;0.93;0.30;;;7.20;99.90;;;;;;5423485;26;20020;-75
2024/04/17 07:14:37;;;;;;;2.75;0.57;;;7.30;99.90;;;;;;5395009;26;20461;-75
2024/04/17 07:17:03;;;;;;;1.35;0.50;;;7.40;99.90;;;;;;5435554;26;20013;-75
2024/04/17 07:19:30;;;;;;;3.80;0.50;;;7.60;99.90;;;;;;5469496;25;20016;-75
2024/04/17 07:21:56;;;;;;;1.38;0.45;;;7.70;99.90;;;;;;5436030;26;19994;-75
2024/04/17 07:24:24;;;;;;;3.47;0.90;;;7.80;99.90;;;;;;5394030;26;20006;-75
2024/04/17 07:26:53;;;;;;;4.65;0.80;;;8.00;99.90;;;;;;5423996;26;20021;-75
2024/04/17 07:29:20;;;;;;;2.47;0.68;;;8.10;99.90;;;;;;5393826;26;20002;-75
2024/04/17 07:31:50;;;;;;;2.72;0.52;;;8.30;99.90;;;;;;5369210;26;20012;-75
2024/04/17 07:34:16;;;;;;;2.15;0.60;;;8.20;99.90;;;;;;5399040;26;20049;-75
2024/04/17 07:36:43;;;;;;;0.98;0.50;;;8.20;99.90;;;;;;5438867;26;20401;-76
2024/04/17 07:39:12;;;;;;;1.55;0.60;;;8.10;99.90;;;;;;5435262;26;20020;-75
2024/04/17 07:41:39;;;;;;;1.98;0.70;;;8.00;99.90;;;;;;5395503;26;20014;-75
2024/04/17 07:44:05;;;;;;;2.45;0.60;;;8.00;99.90;;;;;;5422429;26;20006;-75
2024/04/17 07:46:31;;;;;;;2.30;0.60;;;8.00;99.90;;;;;;5391142;26;20021;-75
2024/04/17 07:48:58;;;;;;;3.15;0.60;;;8.10;99.90;;;;;;5394315;26;19999;-75
2024/04/17 07:51:24;;;;;;;3.28;0.80;;;8.10;99.90;;;;;;5396155;26;20306;-75
2024/04/17 07:53:50;;;;;;;3.20;0.70;;;8.30;99.90;;;;;;5438351;26;20525;-75
2024/04/17 07:56:17;;;;;;;4.05;0.98;;;8.50;99.90;;;;;;5434579;26;20006;-75
2024/04/17 07:58:43;;;;;;;5.53;0.68;;;8.80;99.90;;;;;;5431317;26;19998;-75
2024/04/17 08:01:10;;;;;;;4.47;1.05;;;9.10;99.90;;;;;;5392769;26;20115;-75
2024/04/17 08:03:37;;;;;;;6.45;1.05;;;9.50;99.90;;;;;;5422276;26;20402;-75
2024/04/17 08:06:04;;;;;;;5.82;0.93;;;9.70;99.90;;;;;;5423594;26;20018;-75
2024/04/17 08:08:30;;;;;;;5.93;0.70;;;9.80;99.90;;;;;;5422600;26;20016;-75
2024/04/17 08:10:57;;;;;;;2.55;0.60;;;10.00;99.90;;;;;;5401719;26;20017;-75
2024/04/17 08:13:23;;;;;;;6.05;0.70;;;10.10;99.90;;;;;;5410806;26;20006;-75
2024/04/17 08:15:54;;;;;;;7.00;1.23;;;10.30;99.90;;;;;;5407042;26;19999;-75
2024/04/17 08:18:21;;;;;;;7.13;0.95;;;10.60;99.90;;;;;;5397113;26;20462;-74
2024/04/17 08:20:47;;;;;;;6.60;0.73;;;10.80;99.90;;;;;;5424866;26;20006;-75
2024/04/17 08:23:13;;;;;;;6.68;1.00;;;11.00;99.90;;;;;;5366902;26;20321;-75
2024/04/17 08:25:40;;;;;;;6.75;0.88;;;11.20;99.90;;;;;;5421720;26;20010;-75
2024/04/17 08:28:06;;;;;;;7.03;0.95;;;11.30;99.90;;;;;;5396128;26;20006;-75
2024/04/17 08:30:33;;;;;;;4.45;0.60;;;11.10;99.90;;;;;;5439238;26;20002;-75
2024/04/17 08:32:59;;;;;;;4.00;0.55;;;10.90;99.90;;;;;;5436337;26;20002;-75
2024/04/17 08:35:25;;;;;;;6.85;0.73;;;10.70;99.90;;;;;;5392104;26;20008;-75
2024/04/17 08:37:52;;;;;;;6.10;0.75;;;10.50;99.90;;;;;;5365675;26;20006;-75
2024/04/17 08:40:19;;;;;;;6.03;0.70;;;10.40;99.90;;;;;;5391172;26;19998;-75
2024/04/17 08:42:51;;;;;;;5.68;0.60;;;10.40;99.90;;;;;;5395493;26;20016;-75
2024/04/17 08:45:34;;;;;;;6.07;0.80;;;10.40;99.90;;;;;;5423037;26;20003;-75
2024/04/17 08:48:01;;;;;;;;;;;10.50;99.90;;;;;;5407747;26;19998;-76
2024/04/17 08:50:32;;;;;;;7.47;1.42;;;10.60;99.90;;;;;;5379275;26;19931;-75
2024/04/17 08:52:59;;;;;;;9.85;1.20;;;10.70;99.90;;;;;;5448196;25;20001;-76
2024/04/17 08:55:30;;;;;;;5.30;0.40;;;10.80;99.90;;;;;;5418909;26;19998;-76
2024/04/17 08:57:57;;;;;;;4.80;0.40;;;10.80;99.90;;;;;;5424496;26;20014;-76
2024/04/17 09:00:25;;;;;;;4.57;0.40;;;10.60;99.90;;;;;;5447930;26;20002;-76
2024/04/17 09:02:55;;;;;;;4.47;0.47;;;10.30;99.90;;;;;;5396727;26;20021;-76
2024/04/17 09:05:23;;;;;;;5.55;0.50;;;10.00;99.90;;;;;;5435457;26;19998;-76
2024/04/17 09:07:50;;;;;;;4.97;0.55;;;9.70;99.90;;;;;;5434979;26;20017;-76
2024/04/17 09:10:20;;;;;;;4.30;0.50;;;9.40;99.90;;;;;;5370022;26;20009;-76
2024/04/17 09:12:47;;;;;;;3.10;0.52;;;9.30;99.90;;;;;;5392688;26;20387;-76
2024/04/17 09:15:14;;;;;;;4.80;0.30;;;9.10;99.90;;;;;;5447046;26;20005;-76
2024/04/17 09:17:41;;;;;;;3.03;0.43;;;9.00;99.90;;;;;;5419784;26;20356;-75
2024/04/17 09:20:09;;;;;;;4.38;0.63;;;8.90;99.90;;;;;;5392163;26;20010;-75
2024/04/17 09:22:36;;;;;;;7.18;0.40;;;8.90;99.90;;;;;;5431395;26;20002;-76
2024/04/17 09:25:10;;;;;;;3.50;0.40;;;8.90;99.90;;;;;;5404638;26;20810;-76
2024/04/17 09:27:38;;;;;;;3.70;0.35;;;9.20;99.90;;;;;;5400666;26;20009;-76
2024/04/17 09:30:05;;;;;;;3.88;0.88;;;9.70;99.90;;;;;;5422699;26;20022;-76
2024/04/17 09:32:32;;;;;;;5.60;0.40;;;10.20;99.90;;;;;;5420793;26;20022;-76
2024/04/17 09:35:00;;;;;;;5.32;0.40;;;10.70;99.90;;;;;;5389477;26;20010;-76
2024/04/17 09:37:27;;;;;;;2.13;0.38;;;10.90;99.90;;;;;;5424754;26;20028;-75
2024/04/17 09:40:04;;;;;;;1.65;0.17;;;10.90;99.90;;;;;;5428271;26;20025;-76
2024/04/17 09:42:37;;;;;;;2.00;0.20;;;10.90;99.90;;;;;;5438006;26;20020;-77
2024/04/17 09:45:04;;;;;;;2.08;0.30;;;10.80;99.90;;;;;;5401223;26;20020;-76
2024/04/17 09:47:32;;;;;;;4.03;0.30;;;10.80;99.90;;;;;;5419606;26;20006;-76
2024/04/17 09:49:59;;;;;;;1.05;0.10;;;10.60;99.90;;;;;;5358817;26;20532;-73
2024/04/17 09:52:28;;;;;;;1.33;0.30;;;10.30;99.90;;;;;;5389292;26;20056;-74
2024/04/17 09:54:56;;;;;;;2.40;0.20;;;10.10;99.90;;;;;;5389604;26;20013;-74
2024/04/17 09:57:22;;;;;;;1.42;0.20;;;10.10;99.90;;;;;;5375053;26;20013;-74
2024/04/17 09:59:49;;;;;;;1.50;0.20;;;10.10;99.90;;;;;;5408063;26;21499;-75
2024/04/17 10:02:16;;;;;;;1.05;0.10;;;10.30;99.90;;;;;;5371718;26;20026;-75
2024/04/17 10:04:45;;;;;;;3.67;0.50;;;10.50;99.90;;;;;;5388905;26;20002;-75
2024/04/17 10:07:13;;;;;;;2.15;0.20;;;10.70;99.90;;;;;;5422664;26;20290;-75
2024/04/17 10:09:43;;;;;;;3.65;0.20;;;10.90;99.90;;;;;;5446943;25;20360;-75
2024/04/17 10:12:11;;;;;;;1.55;0.20;;;11.10;99.90;;;;;;5417953;26;20099;-75
2024/04/17 10:14:39;;;;;;;2.05;0.40;;;11.00;99.90;;;;;;5393932;26;20493;-75
2024/04/17 10:17:09;;;;;;;1.35;0.20;;;10.80;99.90;;;;;;5405499;26;20006;-75
2024/04/17 10:19:37;;;;;;;5.10;0.30;;;10.60;99.90;;;;;;5422887;26;21298;-75
2024/04/17 10:22:06;;;;;;;2.33;0.50;;;10.30;99.90;;;;;;5394345;26;20434;-75
2024/04/17 10:24:33;;;;;;;5.25;1.90;;;10.00;99.90;;;;;;5389580;26;20006;-74
2024/04/17 10:27:04;;;;;;;3.90;0.68;;;9.80;99.90;;;;;;5476174;25;20010;-75
2024/04/17 10:29:31;;;;;;;1.83;0.30;;;9.60;99.90;;;;;;5393407;26;20005;-75
2024/04/17 10:31:58;;;;;;;3.60;0.35;;;9.40;99.90;;;;;;5428798;26;21500;-76
2024/04/17 10:34:44;;;;;;;2.55;0.30;;;9.30;99.90;;;;;;5431998;26;20733;-78
2024/04/17 10:37:14;;;;;;;2.17;0.20;;;9.10;99.90;;;;;;5421361;25;19999;-74
2024/04/17 10:39:41;;;;;;;0.90;0.20;;;9.00;99.90;;;;;;5391549;26;20024;-76
2024/04/17 10:42:08;;;;;;;1.17;0.30;;;9.00;99.90;;;;;;5386145;26;20022;-76
2024/04/17 10:44:43;;;;;;;1.00;0.20;;;9.10;99.90;;;;;;5387820;26;20337;-76
2024/04/17 10:47:21;;;;;;;1.60;0.28;;;9.20;99.90;;;;;;5363132;26;22152;-75
2024/04/17 10:50:02;;;;;;;1.42;0.20;;;9.40;99.90;;;;;;5434826;26;20006;-76
2024/04/17 10:52:32;;;;;;;1.10;0.20;;;9.60;99.90;;;;;;5409281;26;20187;-76
2024/04/17 10:55:00;;;;;;;3.65;0.80;;;9.80;99.90;;;;;;5362144;26;20438;-76
2024/04/17 10:57:31;;;;;;;3.85;0.30;;;9.90;99.90;;;;;;5423931;26;21222;-77
2024/04/17 10:59:57;;;;;;;2.58;0.30;;;10.20;99.90;;;;;;5390415;26;19998;-75
2024/04/17 11:02:24;;;;;;;3.22;0.30;;;10.40;99.90;;;;;;5419072;26;20445;-75
2024/04/17 11:04:50;;;;;;;1.75;0.30;;;10.80;99.90;;;;;;5357888;26;20010;-76
2024/04/17 11:07:18;;;;;;;1.33;0.20;;;11.40;99.90;;;;;;5364692;26;21057;-76
2024/04/17 11:09:48;;;;;;;0.30;0.20;;;12.00;99.90;;;;;;5413479;26;20006;-76
2024/04/17 11:12:16;;;;;;;2.38;0.43;;;12.50;99.90;;;;;;5425273;26;20010;-76
2024/04/17 11:14:43;;;;;;;0.75;0.20;;;12.80;99.90;;;;;;5407298;26;20002;-75
2024/04/17 11:17:10;;;;;;;1.13;0.20;;;13.00;99.90;;;;;;5429050;26;20010;-76
2024/04/17 11:19:40;;;;;;;1.50;0.10;;;13.20;99.90;;;;;;5448194;25;19999;-77
2024/04/17 11:22:08;;;;;;;2.15;0.20;;;13.40;99.90;;;;;;5421973;26;20018;-77
2024/04/17 11:24:34;;;;;;;0.88;0.10;;;13.60;99.90;;;;;;5364475;26;20020;-76
2024/04/17 11:27:00;;;;;;;1.83;0.15;;;13.90;99.90;;;;;;5396358;26;20449;-77
2024/04/17 11:29:28;;;;;;;2.83;0.57;;;14.30;99.90;;;;;;5427191;26;20352;-77
2024/04/17 11:31:54;;;;;;;2.65;0.68;;;14.60;99.90;;;;;;5408400;26;20484;-78
2024/04/17 11:34:23;;;;;;;2.30;0.30;;;15.00;99.90;;;;;;5431767;26;20006;-76
2024/04/17 11:36:49;;;;;;;0.73;0.20;;;15.50;99.90;;;;;;5422647;26;20021;-75
2024/04/17 11:39:17;;;;;;;0.57;0.20;;;16.10;99.90;;;;;;5419449;26;19998;-76
2024/04/17 11:41:43;;;;;;;0.35;0.10;;;16.60;99.90;;;;;;5396287;26;20398;-77
2024/04/17 11:44:09;;;;;;;1.52;0.20;;;17.00;99.90;;;;;;5421206;26;20002;-77
2024/04/17 11:46:39;;;;;;;1.50;0.20;;;17.20;99.90;;;;;;5425697;26;20013;-77
2024/04/17 11:49:08;;;;;;;0.47;0.10;;;17.80;99.90;;;;;;5439490;26;20002;-79
2024/04/17 11:51:35;;;;;;;2.25;0.20;;;18.50;99.90;;;;;;5407051;26;20010;-75
2024/04/17 11:54:03;;;;;;;3.72;1.05;;;18.80;99.90;;;;;;5433789;26;20417;-78
2024/04/17 11:56:30;;;;;;;2.25;0.40;;;18.50;99.90;;;;;;5365890;26;20017;-78
2024/04/17 11:58:56;;;;;;;1.85;0.30;;;18.10;99.90;;;;;;5395704;26;21309;-78
2024/04/17 12:01:23;;;;;;;1.48;0.20;;;18.20;99.90;;;;;;5387647;26;20002;-77
2024/04/17 12:03:49;;;;;;;1.20;0.17;;;18.30;99.90;;;;;;5396533;26;20433;-78
2024/04/17 12:06:15;;;;;;;1.17;0.13;;;18.30;99.90;;;;;;5423500;26;20010;-78
2024/04/17 12:08:42;;;;;;;1.63;0.17;;;18.20;99.90;;;;;;5407716;26;19998;-77
2024/04/17 12:11:08;;;;;;;0.70;0.10;;;17.80;99.90;;;;;;5404874;26;20024;-77
2024/04/17 12:13:36;;;;;;;1.80;0.28;;;17.20;99.90;;;;;;5421755;26;20020;-77
2024/04/17 12:16:04;;;;;;;1.02;0.17;;;16.60;99.90;;;;;;5418970;26;20013;-75
2024/04/17 12:18:31;;;;;;;1.20;0.10;;;16.00;99.90;;;;;;5392877;26;20654;-76
2024/04/17 12:20:57;;;;;;;1.70;0.20;;;15.10;99.90;;;;;;5390912;26;20013;-76
2024/04/17 12:23:25;;;;;;;0.55;0.03;;;14.00;99.90;;;;;;5402339;26;20006;-75
2024/04/17 12:28:36;;;;;;;1.58;0.20;;;12.10;99.90;;;;;;5426346;26;19999;-76
2024/04/17 12:31:03;;;;;;;1.60;0.10;;;11.20;99.90;;;;;;5388190;26;20002;-76
2024/04/17 12:33:30;;;;;;;1.20;0.10;;;10.60;99.90;;;;;;5388958;26;20005;-76
2024/04/17 12:35:56;;;;;;;0.68;0.10;;;10.10;99.90;;;;;;5389502;26;19998;-75
2024/04/17 12:38:23;;;;;;;1.60;0.10;;;9.70;99.90;;;;;;5388945;26;20006;-76
2024/04/17 12:40:49;;;;;;;0.55;0.10;;;9.40;99.90;;;;;;5392157;26;20060;-76
2024/04/17 12:43:16;;;;;;;0.73;0.10;;;9.10;99.90;;;;;;5375800;26;20001;-76
2024/04/17 12:45:42;;;;;;;0.10;0.00;;;8.80;99.90;;;;;;5405263;26;20862;-76
2024/04/17 12:48:10;;;;;;;0.30;0.10;;;8.60;99.90;;;;;;5397398;26;20460;-76
2024/04/17 12:50:36;;;;;;;0.20;0.00;;;8.30;99.90;;;;;;5420702;26;20014;-77
2024/04/17 12:53:06;;;;;;;1.00;0.10;;;8.10;99.90;;;;;;5388769;26;21258;-78
2024/04/17 12:55:33;;;;;;;0.63;0.10;;;7.90;99.90;;;;;;5388324;26;20010;-78
2024/04/17 12:57:59;;;;;;;0.63;0.20;;;7.70;99.90;;;;;;5418361;26;20014;-76